Pagina principale
METAR-TAF:

METAR-TAF

Aeroporti :

Aeroporto di Oradea

Oradea, Romania

latitudine: 47-03N, longitudine: 021-56E, altezza: 135 m

Osservazione

Il bollettino è stato emesso 41 minuti fa, alle 00:00 UTC
Vento 5 kt da est/nord-est
Temperature 20°C
Umidità 73%
Pressione 1019 hPa
Visibilità 10 km o più

METAR: LROD 210000Z AUTO 07005KT 9999 NCD 20/15 Q1019

Ora: 03:41 (00:41 UTC)

Previsione

Il bollettino è stato emesso 7 ore e 41 minuti fa, alle 17:00 UTC
Previsione valida dal 20 alle 18 UTC al 21 alle 03 UTC
Vento 10 kt da nord/nord-est
Visibilità 10 km o più
nessuna nube inferiore a 1500 m e nessun cumulonembo
Evoluzione graduale
dal 20 alle 18 UTC al 20 alle 20 UTC
Vento 6 kt da est

TAF: LROD 201700Z 2018/2103 02010KT CAVOK BECMG 2018/2020 08006KT

Osservazioni e previsioni meteorologiche di più di 4000 aeroporti (messaggi METAR e TAF).

Le stazioni disponibili sono rappresentate dai dischi gialli e rossi sulla carta.

Puntare il mouse per vedere il nome della stazione.

Clicca sopra per visualizzare le osservazioni e previsioni meteorologiche.

Per cambiare la mappa : fare clic sui pulsanti verdi con una croce nera per ingrandire, il pulsante verde con un trattino per diminuire, o sulla freccia verde per le mappe adiacenti.


METAR-TAF: